Terminal Aerodrome Forecast
Issued by NWS Chicago, IL

Home | Current Version | Previous Version | Graphics & Text | Print | Product List | Glossary On
Versions: 1 2 3 4 5 6 7 8 9 10 11 12 13 14 15 16 17 18 19 20 21 22 23 24 25 26
000
FTUS43 KLOT 270851 AAA
TAFRFD
TAF AMD
KRFD 270851Z 2709/2806 18007KT P6SM FEW060 BKN250
     FM271000 18007KT P6SM VCSH SCT035 BKN250
      TEMPO 2710/2714 -SHRA SCT035 BKN045
     FM271400 19011KT P6SM VCSH SCT035 BKN250
     FM272100 18010KT P6SM VCSH BKN050 BKN250 PROB30 2721/2724 4SM
      TSRA SCT030 OVC050CB
     FM280200 18009KT P6SM SCT050 BKN150=

USA.gov is the U.S. government's official web portal to all federal, state and local government web resources and services.